createdAt,value
2018-05-17T00:00:30.640Z,99.90
2018-05-17T00:02:59.005Z,99.90
2018-05-17T00:05:26.645Z,99.90
2018-05-17T00:07:54.289Z,99.90
2018-05-17T00:10:21.944Z,99.90
2018-05-17T00:12:49.537Z,99.90
2018-05-17T00:15:17.149Z,99.90
2018-05-17T00:17:44.790Z,99.90
2018-05-17T00:20:13.179Z,99.90
2018-05-17T00:22:40.786Z,99.90
2018-05-17T00:25:08.410Z,99.90
2018-05-17T00:27:36.027Z,99.90
2018-05-17T00:30:03.710Z,99.90
2018-05-17T00:32:32.109Z,99.90
2018-05-17T00:34:59.708Z,99.90
2018-05-17T00:37:27.328Z,99.90
2018-05-17T00:39:54.950Z,99.90
2018-05-17T00:42:22.560Z,99.90
2018-05-17T00:44:50.180Z,99.90
2018-05-17T00:47:18.557Z,99.90
2018-05-17T00:49:46.930Z,99.90
2018-05-17T00:52:14.525Z,99.90
2018-05-17T00:54:42.153Z,99.90
2018-05-17T00:57:10.529Z,99.90
2018-05-17T00:59:38.906Z,99.90
2018-05-17T01:02:06.523Z,99.90
2018-05-17T01:04:34.150Z,99.90
2018-05-17T01:07:01.760Z,99.90
2018-05-17T01:09:29.361Z,99.90
2018-05-17T01:11:57.729Z,99.90
2018-05-17T01:14:26.090Z,99.90
2018-05-17T01:16:53.752Z,99.90
2018-05-17T01:19:21.392Z,99.90
2018-05-17T01:21:49.006Z,99.90
2018-05-17T01:24:16.604Z,99.90
2018-05-17T01:26:44.212Z,99.90
2018-05-17T01:29:12.581Z,99.90
2018-05-17T01:31:41.000Z,99.90
2018-05-17T01:34:08.604Z,99.90
2018-05-17T01:36:48.025Z,99.90
2018-05-17T01:39:16.410Z,99.90
2018-05-17T01:41:43.989Z,99.90
2018-05-17T01:44:11.611Z,99.90
2018-05-17T01:46:39.195Z,99.90
2018-05-17T01:49:06.820Z,99.90
2018-05-17T01:51:34.423Z,99.90
2018-05-17T01:54:02.021Z,99.90
2018-05-17T01:56:29.621Z,99.90
2018-05-17T01:58:57.227Z,99.90
2018-05-17T02:01:25.606Z,99.90
2018-05-17T02:03:53.992Z,99.90
2018-05-17T02:06:21.681Z,99.90
2018-05-17T02:08:49.327Z,99.90
2018-05-17T02:11:16.931Z,99.90
2018-05-17T02:13:44.585Z,99.90
2018-05-17T02:16:12.148Z,99.90
2018-05-17T02:18:39.749Z,99.90
2018-05-17T02:21:07.340Z,99.90
2018-05-17T02:23:34.943Z,99.90
2018-05-17T02:26:02.602Z,99.90
2018-05-17T02:28:30.210Z,99.90
2018-05-17T02:30:57.841Z,99.90
2018-05-17T02:33:26.208Z,99.90
2018-05-17T02:35:54.573Z,99.90
2018-05-17T02:38:22.197Z,99.90
2018-05-17T02:40:49.819Z,99.90
2018-05-17T02:43:18.194Z,99.90
2018-05-17T02:45:46.571Z,99.90
2018-05-17T02:48:14.914Z,99.90
2018-05-17T02:50:42.505Z,99.90
2018-05-17T02:53:10.901Z,99.90
2018-05-17T02:55:38.509Z,99.90
2018-05-17T02:58:06.160Z,99.90
2018-05-17T03:00:33.769Z,99.90
2018-05-17T03:03:02.180Z,99.90
2018-05-17T03:05:29.777Z,99.90
2018-05-17T03:07:57.366Z,99.90
2018-05-17T03:10:24.992Z,99.90
2018-05-17T03:12:52.603Z,99.90
2018-05-17T03:15:20.271Z,99.90
2018-05-17T03:17:48.410Z,99.90
2018-05-17T03:20:16.846Z,99.90
2018-05-17T03:22:44.457Z,99.90
2018-05-17T03:25:12.114Z,99.90
2018-05-17T03:27:40.523Z,99.90
2018-05-17T03:30:08.153Z,99.90
2018-05-17T03:32:36.551Z,99.90
2018-05-17T03:35:04.162Z,99.90
2018-05-17T03:37:31.813Z,99.90
2018-05-17T03:39:59.461Z,99.90
2018-05-17T03:42:27.140Z,99.90
2018-05-17T03:44:54.769Z,99.90
2018-05-17T03:47:22.382Z,99.90
2018-05-17T03:49:50.081Z,99.90
2018-05-17T03:52:17.749Z,99.90
2018-05-17T03:54:45.387Z,99.90
2018-05-17T03:57:13.041Z,99.90
2018-05-17T03:59:41.455Z,99.90
2018-05-17T04:02:20.815Z,99.90
2018-05-17T04:05:13.015Z,99.90
2018-05-17T04:07:40.557Z,99.90
2018-05-17T04:10:08.960Z,99.90
2018-05-17T04:12:36.560Z,99.90
2018-05-17T04:15:04.193Z,99.90
2018-05-17T04:17:31.819Z,99.90
2018-05-17T04:19:59.416Z,99.90
2018-05-17T04:22:28.778Z,99.90
2018-05-17T04:24:56.440Z,99.90
2018-05-17T04:27:24.060Z,99.90
2018-05-17T04:29:51.640Z,99.90
2018-05-17T04:32:20.022Z,99.90
2018-05-17T04:34:48.403Z,99.90
2018-05-17T04:37:16.775Z,99.90
2018-05-17T04:39:45.193Z,99.90
2018-05-17T04:42:12.824Z,99.90
2018-05-17T04:44:41.200Z,99.90
2018-05-17T04:47:09.657Z,99.90
2018-05-17T04:49:37.225Z,99.90
2018-05-17T04:52:04.846Z,99.90
2018-05-17T04:54:32.416Z,99.90
2018-05-17T04:57:00.030Z,99.90
2018-05-17T04:59:27.619Z,99.90
2018-05-17T05:01:55.226Z,99.90
2018-05-17T05:04:23.632Z,99.90
2018-05-17T05:06:51.250Z,99.90
2018-05-17T05:09:18.867Z,99.90
2018-05-17T05:11:46.455Z,99.90
2018-05-17T05:14:14.066Z,99.90
2018-05-17T05:16:41.661Z,99.90
2018-05-17T05:19:09.250Z,99.90
2018-05-17T05:21:36.868Z,99.90
2018-05-17T05:24:04.485Z,99.90
2018-05-17T05:26:32.847Z,99.90
2018-05-17T05:29:00.470Z,99.90
2018-05-17T05:31:28.121Z,99.90
2018-05-17T05:33:55.717Z,99.90
2018-05-17T05:36:23.311Z,99.90
2018-05-17T05:38:51.700Z,99.90
2018-05-17T05:41:19.335Z,99.90
2018-05-17T05:43:47.711Z,99.90
2018-05-17T05:46:15.336Z,99.90
2018-05-17T05:48:42.948Z,99.90
2018-05-17T05:51:11.339Z,99.90
2018-05-17T05:53:39.000Z,99.90
2018-05-17T05:56:06.605Z,99.90
2018-05-17T05:58:34.220Z,99.90
2018-05-17T06:01:01.810Z,99.90
2018-05-17T06:03:30.190Z,99.90
2018-05-17T06:05:57.788Z,99.90
2018-05-17T06:08:25.463Z,99.90
2018-05-17T06:10:53.047Z,99.90
2018-05-17T06:13:20.670Z,99.90
2018-05-17T06:15:49.075Z,99.90
2018-05-17T06:18:16.680Z,99.90
2018-05-17T06:20:44.305Z,99.90
2018-05-17T06:23:11.920Z,99.90
2018-05-17T06:25:39.544Z,99.90
2018-05-17T06:28:07.118Z,99.90
2018-05-17T06:30:35.521Z,99.90
2018-05-17T06:33:03.125Z,99.90
2018-05-17T06:35:30.720Z,99.90
2018-05-17T06:37:58.360Z,99.90
2018-05-17T06:40:25.953Z,99.90
2018-05-17T06:42:53.581Z,99.90
2018-05-17T06:45:21.199Z,99.90
2018-05-17T06:47:49.560Z,99.90
2018-05-17T06:50:17.277Z,99.90
2018-05-17T06:52:44.863Z,99.90
2018-05-17T06:55:12.500Z,99.90
2018-05-17T06:57:40.092Z,99.90
2018-05-17T07:00:07.679Z,99.90
2018-05-17T07:02:35.278Z,99.90
2018-05-17T07:05:02.909Z,99.90
2018-05-17T07:07:30.549Z,99.90
2018-05-17T07:09:58.940Z,99.90
2018-05-17T07:12:27.280Z,99.90
2018-05-17T07:14:54.915Z,99.90
2018-05-17T07:17:22.520Z,99.90
2018-05-17T07:19:50.894Z,99.90
2018-05-17T07:22:18.531Z,99.90
2018-05-17T07:24:46.141Z,99.90
2018-05-17T07:27:13.729Z,99.90
2018-05-17T07:29:41.320Z,99.90
2018-05-17T07:32:09.011Z,99.90
2018-05-17T07:34:37.397Z,96.80
2018-05-17T07:37:05.022Z,96.70
2018-05-17T07:39:32.640Z,95.70
2018-05-17T07:42:00.247Z,95.60
2018-05-17T07:44:27.871Z,95.80
2018-05-17T07:46:55.488Z,96.10
2018-05-17T07:49:23.875Z,95.30
2018-05-17T07:51:51.511Z,95.20
2018-05-17T07:54:19.080Z,92.90
2018-05-17T07:56:47.479Z,92.30
2018-05-17T07:59:15.071Z,92.30
2018-05-17T08:01:42.772Z,93.90
2018-05-17T08:04:10.341Z,91.40
2018-05-17T08:06:38.714Z,87.00
2018-05-17T08:09:07.121Z,87.30
2018-05-17T08:11:34.761Z,86.70
2018-05-17T08:14:03.135Z,82.40
2018-05-17T08:16:31.521Z,84.30
2018-05-17T08:18:59.900Z,76.60
2018-05-17T08:21:28.300Z,69.40
2018-05-17T08:23:55.899Z,69.30
2018-05-17T08:26:23.529Z,71.50
2018-05-17T08:28:51.230Z,71.40
2018-05-17T08:31:18.761Z,70.50
2018-05-17T08:33:46.411Z,69.30
2018-05-17T08:36:14.073Z,67.80
2018-05-17T08:38:41.671Z,72.90
2018-05-17T08:41:09.266Z,72.20
2018-05-17T08:43:36.849Z,73.90
2018-05-17T08:46:04.464Z,71.60
2018-05-17T08:48:32.913Z,73.40
2018-05-17T08:51:00.506Z,73.30
2018-05-17T08:53:28.900Z,69.90
2018-05-17T08:55:56.479Z,69.80
2018-05-17T08:58:24.131Z,70.70
2018-05-17T09:00:51.777Z,72.30
2018-05-17T09:03:19.390Z,67.50
2018-05-17T09:05:46.990Z,67.00
2018-05-17T09:08:15.350Z,64.30
2018-05-17T09:10:42.992Z,64.20
2018-05-17T09:13:10.582Z,64.60
2018-05-17T09:15:39.003Z,59.40
2018-05-17T09:18:06.624Z,59.30
2018-05-17T09:20:35.130Z,58.90
2018-05-17T09:23:02.668Z,58.90
2018-05-17T09:25:31.051Z,58.60
2018-05-17T09:27:58.649Z,58.60
2018-05-17T09:30:26.306Z,59.00
2018-05-17T09:32:53.890Z,56.90
2018-05-17T09:35:21.531Z,57.00
2018-05-17T09:37:49.141Z,56.30
2018-05-17T09:40:17.505Z,52.60
2018-05-17T09:42:45.889Z,53.80
2018-05-17T09:45:14.249Z,48.90
2018-05-17T09:47:41.964Z,48.90
2018-05-17T09:50:10.337Z,48.90
2018-05-17T09:52:37.918Z,48.90
2018-05-17T09:55:05.581Z,49.50
2018-05-17T09:57:33.163Z,46.30
2018-05-17T10:00:00.812Z,47.00
2018-05-17T10:02:29.280Z,42.00
2018-05-17T10:04:56.851Z,42.00
2018-05-17T10:07:24.460Z,44.00
2018-05-17T10:09:52.841Z,44.30
2018-05-17T10:12:21.210Z,43.30
2018-05-17T10:14:49.565Z,44.70
2018-05-17T10:17:17.150Z,44.60
2018-05-17T10:19:45.477Z,42.60
2018-05-17T10:22:13.090Z,42.60
2018-05-17T10:24:40.695Z,42.60
2018-05-17T10:27:08.301Z,44.40
2018-05-17T10:29:37.310Z,44.00
2018-05-17T10:32:04.900Z,44.00
2018-05-17T10:34:32.520Z,43.40
2018-05-17T10:37:00.880Z,41.70
2018-05-17T10:39:29.253Z,44.00
2018-05-17T10:41:57.622Z,43.60
2018-05-17T10:44:25.260Z,43.60
2018-05-17T10:46:52.848Z,43.60
2018-05-17T10:49:20.480Z,42.80
2018-05-17T10:51:48.860Z,44.30
2018-05-17T10:54:16.475Z,44.50
2018-05-17T10:56:44.071Z,43.20
2018-05-17T10:59:11.679Z,43.50
2018-05-17T11:01:40.042Z,44.80
2018-05-17T11:04:07.640Z,44.80
2018-05-17T11:06:35.303Z,46.00
2018-05-17T11:09:02.908Z,43.30
2018-05-17T11:11:30.540Z,41.50
2018-05-17T11:13:58.173Z,44.20
2018-05-17T11:16:25.780Z,43.20
2018-05-17T11:18:53.381Z,45.50
2018-05-17T11:21:21.806Z,43.60
2018-05-17T11:23:49.399Z,43.50
2018-05-17T11:26:17.115Z,45.10
2018-05-17T11:28:44.644Z,47.00
2018-05-17T11:31:13.035Z,43.00
2018-05-17T11:33:40.668Z,43.00
2018-05-17T11:36:09.060Z,43.50
2018-05-17T11:38:37.513Z,42.50
2018-05-17T11:41:05.090Z,42.40
2018-05-17T11:43:33.472Z,40.80
2018-05-17T11:46:01.111Z,40.70
2018-05-17T11:48:28.735Z,40.30
2018-05-17T11:50:56.393Z,38.50
2018-05-17T11:53:23.993Z,37.90
2018-05-17T11:55:51.573Z,35.80
2018-05-17T11:58:19.930Z,35.10
2018-05-17T12:00:47.533Z,35.10
2018-05-17T12:03:15.157Z,35.60
2018-05-17T12:05:42.774Z,34.70
2018-05-17T12:08:10.371Z,34.80
2018-05-17T12:10:37.978Z,35.40
2018-05-17T12:13:05.571Z,34.90
2018-05-17T12:15:33.192Z,34.30
2018-05-17T12:18:00.795Z,34.40
2018-05-17T12:20:28.441Z,34.60
2018-05-17T12:22:56.036Z,31.90
2018-05-17T12:25:24.470Z,31.10
2018-05-17T12:27:52.092Z,31.60
2018-05-17T12:30:20.484Z,29.90
2018-05-17T12:32:48.174Z,29.90
2018-05-17T12:35:15.800Z,31.30
2018-05-17T12:37:43.420Z,32.30
2018-05-17T12:40:11.097Z,29.70
2018-05-17T12:42:38.715Z,28.80
2018-05-17T12:45:06.331Z,29.40
2018-05-17T12:47:34.677Z,28.70
2018-05-17T12:50:02.263Z,28.70
2018-05-17T12:52:30.663Z,29.80
2018-05-17T12:54:58.340Z,29.80
2018-05-17T12:57:25.959Z,28.70
2018-05-17T12:59:54.310Z,31.60
2018-05-17T13:02:21.897Z,31.50
2018-05-17T13:04:50.273Z,30.50
2018-05-17T13:07:18.669Z,30.60
2018-05-17T13:09:47.022Z,31.00
2018-05-17T13:12:14.621Z,30.90
2018-05-17T13:14:42.253Z,29.70
2018-05-17T13:17:10.657Z,30.00
2018-05-17T13:19:38.250Z,30.10
2018-05-17T13:22:05.847Z,28.70
2018-05-17T13:24:34.216Z,27.60
2018-05-17T13:27:02.611Z,28.70
2018-05-17T13:29:31.015Z,28.60
2018-05-17T13:31:58.630Z,28.60
2018-05-17T13:34:26.226Z,27.30
2018-05-17T13:36:53.850Z,27.50
2018-05-17T13:39:22.230Z,29.00
2018-05-17T13:41:49.855Z,28.90
2018-05-17T13:44:17.452Z,26.60
2018-05-17T13:46:45.040Z,26.60
2018-05-17T13:49:12.706Z,26.70
2018-05-17T13:51:40.319Z,26.80
2018-05-17T13:54:07.951Z,27.70
2018-05-17T13:56:35.556Z,26.20
2018-05-17T13:59:03.952Z,28.80
2018-05-17T14:01:32.324Z,28.10
2018-05-17T14:04:00.730Z,28.10
2018-05-17T14:06:28.366Z,28.10
2018-05-17T14:08:56.741Z,29.20
2018-05-17T14:11:25.130Z,27.80
2018-05-17T14:13:52.731Z,27.80
2018-05-17T14:16:20.342Z,29.50
2018-05-17T14:18:47.990Z,29.10
2018-05-17T14:21:16.387Z,29.50
2018-05-17T14:23:44.001Z,29.50
2018-05-17T14:26:11.600Z,33.20
2018-05-17T14:28:39.980Z,33.20
2018-05-17T14:31:08.382Z,33.40
2018-05-17T14:33:35.993Z,33.40
2018-05-17T14:36:03.639Z,34.10
2018-05-17T14:38:31.249Z,35.80
2018-05-17T14:40:58.861Z,35.50
2018-05-17T14:43:26.526Z,35.90
2018-05-17T14:45:54.144Z,37.60
2018-05-17T14:48:21.778Z,38.40
2018-05-17T14:50:50.138Z,40.10
2018-05-17T14:53:18.538Z,39.40
2018-05-17T14:55:46.250Z,39.30
2018-05-17T14:58:13.857Z,39.90
2018-05-17T15:03:16.950Z,40.00
2018-05-17T15:05:45.323Z,39.20
2018-05-17T15:08:13.699Z,39.30
2018-05-17T15:10:42.088Z,38.90
2018-05-17T15:13:10.443Z,40.10
2018-05-17T15:15:38.050Z,40.00
2018-05-17T15:18:05.692Z,40.10
2018-05-17T15:20:34.120Z,40.90
2018-05-17T15:23:01.770Z,40.80
2018-05-17T15:25:29.379Z,41.30
2018-05-17T15:27:57.770Z,41.20
2018-05-17T15:30:26.179Z,41.30
2018-05-17T15:32:53.809Z,41.30
2018-05-17T15:35:22.219Z,41.90
2018-05-17T15:37:49.909Z,41.90
2018-05-17T15:40:17.535Z,43.10
2018-05-17T15:42:45.149Z,42.50
2018-05-17T15:45:13.557Z,42.30
2018-05-17T15:47:41.188Z,42.70
2018-05-17T15:50:08.793Z,41.70
2018-05-17T15:52:36.389Z,41.70
2018-05-17T15:55:04.053Z,43.70
2018-05-17T15:57:31.670Z,45.50
2018-05-17T15:59:59.285Z,48.30
2018-05-17T16:02:26.906Z,51.60
2018-05-17T16:04:54.529Z,48.30
2018-05-17T16:07:22.931Z,46.60
2018-05-17T16:09:50.550Z,46.50
2018-05-17T16:12:18.173Z,47.50
2018-05-17T16:14:45.913Z,48.00
2018-05-17T16:17:13.420Z,47.40
2018-05-17T16:19:41.004Z,47.50
2018-05-17T16:22:08.635Z,48.00
2018-05-17T16:24:36.225Z,47.20
2018-05-17T16:27:04.591Z,44.40
2018-05-17T16:29:32.970Z,45.30
2018-05-17T16:32:01.352Z,43.80
2018-05-17T16:34:29.837Z,44.40
2018-05-17T16:36:57.403Z,44.40
2018-05-17T16:39:25.822Z,44.60
2018-05-17T16:41:53.477Z,44.60
2018-05-17T16:44:21.095Z,44.30
2018-05-17T16:46:49.523Z,43.30
2018-05-17T16:49:17.165Z,43.30
2018-05-17T16:51:44.805Z,42.20
2018-05-17T16:54:12.626Z,41.90
2018-05-17T16:56:40.164Z,42.70
2018-05-17T16:59:07.800Z,43.10
2018-05-17T17:01:35.423Z,42.60
2018-05-17T17:04:03.016Z,43.20
2018-05-17T17:06:30.699Z,42.90
2018-05-17T17:08:58.335Z,43.40
2018-05-17T17:11:26.002Z,43.70
2018-05-17T17:13:53.616Z,45.10
2018-05-17T17:16:21.215Z,47.30
2018-05-17T17:18:48.833Z,48.20
2018-05-17T17:21:16.480Z,49.20
2018-05-17T17:23:44.870Z,49.80
2018-05-17T17:26:12.546Z,49.60
2018-05-17T17:28:40.148Z,50.10
2018-05-17T17:31:07.785Z,50.40
2018-05-17T17:33:36.174Z,51.60
2018-05-17T17:36:03.817Z,51.60
2018-05-17T17:38:32.173Z,53.10
2018-05-17T17:40:59.820Z,53.10
2018-05-17T17:43:27.429Z,53.70
2018-05-17T17:45:55.060Z,54.10
2018-05-17T17:48:22.699Z,53.70
2018-05-17T17:50:50.311Z,54.40
2018-05-17T17:53:17.924Z,54.10
2018-05-17T17:55:45.538Z,54.60
2018-05-17T17:58:13.223Z,55.00
2018-05-17T18:00:40.891Z,56.00
2018-05-17T18:03:08.490Z,55.20
2018-05-17T18:05:36.865Z,54.80
2018-05-17T18:08:05.244Z,55.50
2018-05-17T18:10:33.663Z,55.90
2018-05-17T18:13:01.330Z,55.90
2018-05-17T18:15:28.962Z,56.50
2018-05-17T18:17:57.830Z,56.60
2018-05-17T18:20:26.224Z,56.80
2018-05-17T18:22:54.614Z,57.10
2018-05-17T18:25:22.253Z,57.00
2018-05-17T18:27:50.621Z,57.20
2018-05-17T18:30:18.282Z,57.20
2018-05-17T18:32:45.950Z,58.30
2018-05-17T18:35:13.534Z,58.50
2018-05-17T18:37:41.171Z,59.00
2018-05-17T18:40:09.554Z,60.40
2018-05-17T18:42:37.975Z,63.20
2018-05-17T18:45:05.582Z,63.00
2018-05-17T18:47:33.213Z,61.30
2018-05-17T18:50:00.831Z,63.30
2018-05-17T18:52:28.429Z,63.60
2018-05-17T18:54:56.037Z,65.00
2018-05-17T18:57:24.412Z,64.20
2018-05-17T18:59:52.796Z,63.30
2018-05-17T19:02:21.234Z,63.50
2018-05-17T19:04:48.886Z,63.40
2018-05-17T19:07:16.509Z,63.70
2018-05-17T19:09:44.102Z,64.30
2018-05-17T19:12:11.699Z,64.70
2018-05-17T19:14:39.297Z,71.30
2018-05-17T19:17:06.895Z,76.60
2018-05-17T19:19:34.498Z,78.60
2018-05-17T19:22:02.869Z,80.90
2018-05-17T19:24:30.482Z,80.90
2018-05-17T19:26:58.124Z,81.30
2018-05-17T19:29:25.745Z,82.50
2018-05-17T19:31:54.130Z,85.00
2018-05-17T19:34:22.511Z,86.70
2018-05-17T19:36:50.921Z,88.50
2018-05-17T19:39:18.540Z,88.50
2018-05-17T19:41:47.020Z,90.70
2018-05-17T19:44:14.590Z,90.60
2018-05-17T19:46:42.930Z,91.40
2018-05-17T19:49:10.540Z,91.40
2018-05-17T19:51:38.171Z,89.60
2018-05-17T19:54:06.537Z,91.20
2018-05-17T19:56:34.170Z,90.80
2018-05-17T19:59:01.780Z,92.10
2018-05-17T20:01:30.128Z,93.50
2018-05-17T20:03:57.788Z,93.50
2018-05-17T20:06:25.430Z,93.90
2018-05-17T20:08:53.029Z,94.30
2018-05-17T20:11:21.477Z,94.60
2018-05-17T20:13:49.049Z,94.60
2018-05-17T20:16:16.729Z,95.30
2018-05-17T20:18:45.170Z,96.60
2018-05-17T20:21:12.785Z,96.60
2018-05-17T20:23:40.425Z,97.00
2018-05-17T20:26:08.839Z,97.90
2018-05-17T20:28:36.509Z,97.90
2018-05-17T20:31:04.160Z,98.20
2018-05-17T20:33:31.760Z,98.00
2018-05-17T20:35:59.378Z,97.70
2018-05-17T20:38:27.016Z,97.80
2018-05-17T20:40:55.406Z,98.60
2018-05-17T20:43:23.029Z,98.50
2018-05-17T20:45:50.706Z,98.50
2018-05-17T20:48:19.062Z,99.00
2018-05-17T20:50:46.669Z,99.00
2018-05-17T20:53:14.337Z,98.60
2018-05-17T20:55:41.949Z,98.50
2018-05-17T20:58:09.536Z,99.20
2018-05-17T21:00:38.009Z,98.80
2018-05-17T21:03:05.587Z,98.80
2018-05-17T21:05:33.235Z,99.60
2018-05-17T21:08:01.589Z,99.90
2018-05-17T21:10:29.560Z,99.90
2018-05-17T21:12:57.191Z,99.90
2018-05-17T21:15:24.806Z,99.90
2018-05-17T21:17:53.221Z,99.90
2018-05-17T21:20:20.884Z,99.90
2018-05-17T21:22:48.510Z,99.90
2018-05-17T21:25:16.150Z,99.90
2018-05-17T21:27:44.560Z,99.90
2018-05-17T21:30:12.261Z,99.90
2018-05-17T21:32:39.848Z,99.90
2018-05-17T21:35:07.472Z,99.90
2018-05-17T21:37:35.106Z,99.90
2018-05-17T21:40:02.703Z,99.90
2018-05-17T21:42:30.325Z,99.90
2018-05-17T21:44:57.998Z,99.90
2018-05-17T21:47:26.324Z,99.90
2018-05-17T21:49:53.945Z,99.90
2018-05-17T21:52:21.540Z,99.90
2018-05-17T21:54:49.909Z,99.90
2018-05-17T21:57:18.310Z,99.90
2018-05-17T21:59:46.681Z,99.90
2018-05-17T22:02:15.047Z,99.90
2018-05-17T22:04:42.661Z,99.90
2018-05-17T22:07:10.281Z,99.90
2018-05-17T22:09:38.673Z,99.90
2018-05-17T22:12:07.028Z,99.90
2018-05-17T22:14:34.654Z,99.90
2018-05-17T22:17:02.294Z,99.90
2018-05-17T22:19:29.911Z,99.90
2018-05-17T22:21:57.510Z,99.90
2018-05-17T22:24:25.120Z,99.90
2018-05-17T22:26:52.723Z,99.90
2018-05-17T22:29:20.371Z,99.90
2018-05-17T22:31:48.770Z,99.90
2018-05-17T22:34:16.373Z,99.90
2018-05-17T22:36:43.959Z,99.90
2018-05-17T22:39:12.335Z,99.90
2018-05-17T22:41:40.731Z,99.90
2018-05-17T22:44:08.430Z,99.90
2018-05-17T22:46:36.019Z,99.90
2018-05-17T22:49:03.626Z,99.90
2018-05-17T22:51:31.224Z,99.90
2018-05-17T22:53:58.831Z,99.90
2018-05-17T22:56:38.530Z,99.90
2018-05-17T22:59:06.135Z,99.90
2018-05-17T23:01:33.759Z,99.90
2018-05-17T23:04:01.370Z,99.90
2018-05-17T23:06:28.993Z,99.90
2018-05-17T23:08:57.369Z,99.90
2018-05-17T23:11:25.723Z,99.90
2018-05-17T23:13:53.371Z,99.90
2018-05-17T23:16:20.993Z,99.90
2018-05-17T23:18:48.600Z,99.90
2018-05-17T23:21:16.240Z,99.90
2018-05-17T23:23:43.845Z,99.90
2018-05-17T23:26:12.229Z,99.90
2018-05-17T23:28:40.631Z,99.90
2018-05-17T23:31:08.279Z,99.90
2018-05-17T23:33:36.695Z,99.90
2018-05-17T23:36:04.315Z,99.90
2018-05-17T23:38:32.688Z,99.90
2018-05-17T23:41:12.856Z,99.90
2018-05-17T23:43:40.457Z,99.90
2018-05-17T23:46:08.142Z,99.90
2018-05-17T23:48:35.761Z,99.90
2018-05-17T23:51:03.410Z,99.90
2018-05-17T23:53:31.017Z,99.90
2018-05-17T23:55:58.624Z,99.90
2018-05-17T23:58:26.253Z,99.90
